createdAt,value
2018-05-18T00:00:03.841Z,1015.46
2018-05-18T00:00:30.006Z,1015.47
2018-05-18T00:00:56.136Z,1015.51
2018-05-18T00:01:22.304Z,1015.5
2018-05-18T00:01:48.468Z,1015.47
2018-05-18T00:02:14.601Z,1015.46
2018-05-18T00:02:40.744Z,1015.51
2018-05-18T00:03:06.906Z,1015.53
2018-05-18T00:03:33.065Z,1015.49
2018-05-18T00:03:59.206Z,1015.59
2018-05-18T00:04:25.342Z,1015.52
2018-05-18T00:04:51.486Z,1015.52
2018-05-18T00:05:17.627Z,1015.51
2018-05-18T00:05:43.769Z,1015.52
2018-05-18T00:06:09.918Z,1015.51
2018-05-18T00:06:36.056Z,1015.49
2018-05-18T00:07:02.190Z,1015.5
2018-05-18T00:07:28.352Z,1015.51
2018-05-18T00:07:54.521Z,1015.5
2018-05-18T00:08:20.680Z,1015.48
2018-05-18T00:08:46.797Z,1015.51
2018-05-18T00:09:12.933Z,1015.46
2018-05-18T00:09:39.079Z,1015.48
2018-05-18T00:10:05.235Z,1015.49
2018-05-18T00:10:31.426Z,1015.55
2018-05-18T00:10:57.558Z,1015.53
2018-05-18T00:11:23.705Z,1015.52
2018-05-18T00:11:49.840Z,1015.52
2018-05-18T00:12:15.979Z,1015.54
2018-05-18T00:12:42.163Z,1015.54
2018-05-18T00:13:08.307Z,1015.54
2018-05-18T00:13:34.484Z,1015.5
2018-05-18T00:14:00.653Z,1015.5
2018-05-18T00:14:26.791Z,1015.5
2018-05-18T00:14:52.936Z,1015.52
2018-05-18T00:15:19.076Z,1015.52
2018-05-18T00:15:45.218Z,1015.46
2018-05-18T00:16:11.371Z,1015.46
2018-05-18T00:16:37.527Z,1015.5
2018-05-18T00:17:03.670Z,1015.49
2018-05-18T00:17:29.808Z,1015.54
2018-05-18T00:17:55.946Z,1015.49
2018-05-18T00:18:22.117Z,1015.51
2018-05-18T00:18:48.272Z,1015.5
2018-05-18T00:19:14.434Z,1015.47
2018-05-18T00:19:40.598Z,1015.48
2018-05-18T00:20:06.733Z,1015.48
2018-05-18T00:20:32.873Z,1015.49
2018-05-18T00:20:59.013Z,1015.45
2018-05-18T00:21:25.198Z,1015.44
2018-05-18T00:21:51.332Z,1015.45
2018-05-18T00:22:17.503Z,1015.47
2018-05-18T00:22:43.637Z,1015.45
2018-05-18T00:23:09.798Z,1015.46
2018-05-18T00:23:35.945Z,1015.45
2018-05-18T00:24:02.103Z,1015.37
2018-05-18T00:24:28.244Z,1015.45
2018-05-18T00:24:54.393Z,1015.46
2018-05-18T00:25:20.542Z,1015.39
2018-05-18T00:25:46.680Z,1015.42
2018-05-18T00:26:12.820Z,1015.41
2018-05-18T00:26:38.979Z,1015.4
2018-05-18T00:27:05.112Z,1015.45
2018-05-18T00:27:31.254Z,1015.37
2018-05-18T00:27:57.390Z,1015.37
2018-05-18T00:28:23.526Z,1015.38
2018-05-18T00:28:49.695Z,1015.36
2018-05-18T00:29:15.833Z,1015.41
2018-05-18T00:29:41.960Z,1015.39
2018-05-18T00:30:08.105Z,1015.4
2018-05-18T00:30:34.240Z,1015.43
2018-05-18T00:31:00.398Z,1015.38
2018-05-18T00:31:27.156Z,1015.38
2018-05-18T00:31:53.419Z,1015.37
2018-05-18T00:32:19.584Z,1015.45
2018-05-18T00:32:45.721Z,1015.42
2018-05-18T00:33:11.861Z,1015.42
2018-05-18T00:33:37.993Z,1015.42
2018-05-18T00:34:04.146Z,1015.41
2018-05-18T00:34:30.282Z,1015.42
2018-05-18T00:34:56.421Z,1015.43
2018-05-18T00:35:22.573Z,1015.4
2018-05-18T00:35:48.717Z,1015.41
2018-05-18T00:36:14.851Z,1015.42
2018-05-18T00:36:41.022Z,1015.4
2018-05-18T00:37:07.157Z,1015.37
2018-05-18T00:37:33.299Z,1015.42
2018-05-18T00:37:59.441Z,1015.39
2018-05-18T00:38:25.568Z,1015.4
2018-05-18T00:38:51.711Z,1015.37
2018-05-18T00:39:17.855Z,1015.41
2018-05-18T00:39:43.988Z,1015.43
2018-05-18T00:40:10.152Z,1015.37
2018-05-18T00:40:36.325Z,1015.37
2018-05-18T00:41:02.501Z,1015.36
2018-05-18T00:41:28.641Z,1015.4
2018-05-18T00:41:54.781Z,1015.39
2018-05-18T00:42:20.917Z,1015.37
2018-05-18T00:42:47.052Z,1015.32
2018-05-18T00:43:13.221Z,1015.39
2018-05-18T00:43:39.356Z,1015.34
2018-05-18T00:44:05.499Z,1015.38
2018-05-18T00:44:31.632Z,1015.38
2018-05-18T00:44:57.779Z,1015.35
2018-05-18T00:45:23.941Z,1015.42
2018-05-18T00:45:50.078Z,1015.42
2018-05-18T00:46:16.218Z,1015.42
2018-05-18T00:46:42.358Z,1015.4
2018-05-18T00:47:08.493Z,1015.44
2018-05-18T00:47:34.671Z,1015.44
2018-05-18T00:48:00.858Z,1015.4
2018-05-18T00:48:27.017Z,1015.43
2018-05-18T00:48:53.157Z,1015.42
2018-05-18T00:49:19.343Z,1015.41
2018-05-18T00:49:45.533Z,1015.42
2018-05-18T00:50:11.703Z,1015.41
2018-05-18T00:50:37.845Z,1015.42
2018-05-18T00:51:03.984Z,1015.41
2018-05-18T00:51:30.128Z,1015.42
2018-05-18T00:51:56.258Z,1015.45
2018-05-18T00:52:22.398Z,1015.39
2018-05-18T00:52:48.541Z,1015.39
2018-05-18T00:53:14.682Z,1015.35
2018-05-18T00:53:40.816Z,1015.4
2018-05-18T00:54:06.951Z,1015.37
2018-05-18T00:54:33.113Z,1015.36
2018-05-18T00:54:59.261Z,1015.34
2018-05-18T00:55:25.399Z,1015.34
2018-05-18T00:55:51.569Z,1015.38
2018-05-18T00:56:17.702Z,1015.34
2018-05-18T00:56:43.841Z,1015.33
2018-05-18T00:57:09.977Z,1015.33
2018-05-18T00:57:36.148Z,1015.34
2018-05-18T00:58:02.311Z,1015.33
2018-05-18T00:58:28.451Z,1015.32
2018-05-18T00:58:54.615Z,1015.34
2018-05-18T00:59:20.771Z,1015.32
2018-05-18T00:59:46.937Z,1015.36
2018-05-18T01:00:13.069Z,1015.32
2018-05-18T01:00:39.205Z,1015.3
2018-05-18T01:01:05.347Z,1015.31
2018-05-18T01:01:31.478Z,1015.31
2018-05-18T01:01:57.623Z,1015.29
2018-05-18T01:02:23.758Z,1015.32
2018-05-18T01:02:49.898Z,1015.29
2018-05-18T01:03:16.061Z,1015.31
2018-05-18T01:03:42.201Z,1015.27
2018-05-18T01:04:08.332Z,1015.32
2018-05-18T01:04:34.482Z,1015.3
2018-05-18T01:05:00.612Z,1015.25
2018-05-18T01:05:26.752Z,1015.27
2018-05-18T01:05:52.886Z,1015.27
2018-05-18T01:06:19.022Z,1015.23
2018-05-18T01:06:45.157Z,1015.25
2018-05-18T01:07:11.295Z,1015.2
2018-05-18T01:07:37.429Z,1015.26
2018-05-18T01:08:03.576Z,1015.23
2018-05-18T01:08:29.705Z,1015.29
2018-05-18T01:08:55.845Z,1015.21
2018-05-18T01:09:22.013Z,1015.24
2018-05-18T01:09:48.152Z,1015.22
2018-05-18T01:10:14.287Z,1015.23
2018-05-18T01:10:40.442Z,1015.25
2018-05-18T01:11:06.583Z,1015.23
2018-05-18T01:11:32.743Z,1015.24
2018-05-18T01:11:58.897Z,1015.2
2018-05-18T01:12:25.045Z,1015.24
2018-05-18T01:12:51.172Z,1015.24
2018-05-18T01:13:17.309Z,1015.21
2018-05-18T01:13:43.455Z,1015.17
2018-05-18T01:14:09.617Z,1015.22
2018-05-18T01:14:35.777Z,1015.23
2018-05-18T01:15:01.938Z,1015.23
2018-05-18T01:15:28.151Z,1015.26
2018-05-18T01:15:54.378Z,1015.24
2018-05-18T01:16:20.522Z,1015.25
2018-05-18T01:16:46.661Z,1015.25
2018-05-18T01:17:12.800Z,1015.27
2018-05-18T01:17:38.947Z,1015.24
2018-05-18T01:18:05.083Z,1015.22
2018-05-18T01:18:31.238Z,1015.21
2018-05-18T01:18:57.378Z,1015.21
2018-05-18T01:19:23.525Z,1015.27
2018-05-18T01:19:49.660Z,1015.24
2018-05-18T01:20:15.795Z,1015.24
2018-05-18T01:20:41.937Z,1015.21
2018-05-18T01:21:08.074Z,1015.19
2018-05-18T01:21:34.214Z,1015.21
2018-05-18T01:22:00.362Z,1015.24
2018-05-18T01:22:26.496Z,1015.22
2018-05-18T01:22:52.633Z,1015.19
2018-05-18T01:23:18.775Z,1015.2
2018-05-18T01:23:44.934Z,1015.2
2018-05-18T01:24:11.073Z,1015.22
2018-05-18T01:24:37.214Z,1015.23
2018-05-18T01:25:03.351Z,1015.23
2018-05-18T01:25:29.488Z,1015.25
2018-05-18T01:25:55.653Z,1015.19
2018-05-18T01:26:21.789Z,1015.27
2018-05-18T01:26:47.948Z,1015.21
2018-05-18T01:27:14.118Z,1015.23
2018-05-18T01:27:40.251Z,1015.24
2018-05-18T01:28:06.399Z,1015.24
2018-05-18T01:28:32.531Z,1015.23
2018-05-18T01:28:58.699Z,1015.22
2018-05-18T01:29:24.847Z,1015.28
2018-05-18T01:29:51.004Z,1015.25
2018-05-18T01:30:17.144Z,1015.26
2018-05-18T01:30:43.277Z,1015.25
2018-05-18T01:31:09.414Z,1015.2
2018-05-18T01:31:35.544Z,1015.26
2018-05-18T01:32:01.689Z,1015.29
2018-05-18T01:32:27.827Z,1015.26
2018-05-18T01:32:53.961Z,1015.22
2018-05-18T01:33:20.096Z,1015.24
2018-05-18T01:33:46.238Z,1015.3
2018-05-18T01:34:12.371Z,1015.28
2018-05-18T01:34:38.538Z,1015.28
2018-05-18T01:35:04.678Z,1015.31
2018-05-18T01:35:30.851Z,1015.29
2018-05-18T01:35:56.984Z,1015.33
2018-05-18T01:36:23.126Z,1015.33
2018-05-18T01:36:49.252Z,1015.32
2018-05-18T01:37:15.396Z,1015.33
2018-05-18T01:37:41.529Z,1015.31
2018-05-18T01:38:07.677Z,1015.33
2018-05-18T01:38:33.814Z,1015.31
2018-05-18T01:38:59.946Z,1015.31
2018-05-18T01:39:26.112Z,1015.33
2018-05-18T01:39:52.255Z,1015.29
2018-05-18T01:40:18.387Z,1015.32
2018-05-18T01:40:44.589Z,1015.33
2018-05-18T01:41:10.742Z,1015.32
2018-05-18T01:41:36.879Z,1015.33
2018-05-18T01:42:03.027Z,1015.34
2018-05-18T01:42:29.166Z,1015.39
2018-05-18T01:42:55.307Z,1015.35
2018-05-18T01:43:21.461Z,1015.34
2018-05-18T01:43:47.631Z,1015.35
2018-05-18T01:44:13.783Z,1015.28
2018-05-18T01:44:39.976Z,1015.27
2018-05-18T01:45:06.108Z,1015.31
2018-05-18T01:45:32.252Z,1015.29
2018-05-18T01:45:58.392Z,1015.29
2018-05-18T01:46:24.550Z,1015.25
2018-05-18T01:46:50.685Z,1015.26
2018-05-18T01:47:16.855Z,1015.29
2018-05-18T01:47:43.009Z,1015.25
2018-05-18T01:48:09.153Z,1015.29
2018-05-18T01:48:35.313Z,1015.27
2018-05-18T01:49:01.450Z,1015.28
2018-05-18T01:49:27.610Z,1015.27
2018-05-18T01:49:53.747Z,1015.26
2018-05-18T01:50:19.879Z,1015.27
2018-05-18T01:50:46.050Z,1015.24
2018-05-18T01:51:12.204Z,1015.3
2018-05-18T01:51:38.389Z,1015.25
2018-05-18T01:52:04.519Z,1015.28
2018-05-18T01:52:30.684Z,1015.28
2018-05-18T01:52:56.820Z,1015.3
2018-05-18T01:53:22.962Z,1015.26
2018-05-18T01:53:49.095Z,1015.3
2018-05-18T01:54:15.228Z,1015.29
2018-05-18T01:54:41.373Z,1015.28
2018-05-18T01:55:07.513Z,1015.28
2018-05-18T01:55:33.643Z,1015.28
2018-05-18T01:55:59.815Z,1015.26
2018-05-18T01:56:25.954Z,1015.26
2018-05-18T01:56:52.089Z,1015.26
2018-05-18T01:57:18.249Z,1015.27
2018-05-18T01:57:44.409Z,1015.29
2018-05-18T01:58:10.545Z,1015.3
2018-05-18T01:58:36.686Z,1015.31
2018-05-18T01:59:02.844Z,1015.32
2018-05-18T01:59:28.991Z,1015.34
2018-05-18T01:59:55.123Z,1015.28
2018-05-18T02:00:21.262Z,1015.3
2018-05-18T02:00:47.395Z,1015.26
2018-05-18T02:01:13.541Z,1015.27
2018-05-18T02:01:39.680Z,1015.24
2018-05-18T02:02:05.817Z,1015.26
2018-05-18T02:02:31.951Z,1015.24
2018-05-18T02:02:58.096Z,1015.24
2018-05-18T02:03:24.256Z,1015.26
2018-05-18T02:03:50.398Z,1015.26
2018-05-18T02:04:16.560Z,1015.29
2018-05-18T02:04:42.742Z,1015.24
2018-05-18T02:05:08.881Z,1015.25
2018-05-18T02:05:35.021Z,1015.27
2018-05-18T02:06:01.186Z,1015.27
2018-05-18T02:06:27.326Z,1015.21
2018-05-18T02:06:53.463Z,1015.22
2018-05-18T02:07:19.605Z,1015.26
2018-05-18T02:07:45.737Z,1015.28
2018-05-18T02:08:11.875Z,1015.23
2018-05-18T02:08:38.043Z,1015.24
2018-05-18T02:09:04.211Z,1015.21
2018-05-18T02:09:30.366Z,1015.25
2018-05-18T02:09:56.512Z,1015.25
2018-05-18T02:10:22.650Z,1015.26
2018-05-18T02:10:48.823Z,1015.22
2018-05-18T02:11:14.960Z,1015.24
2018-05-18T02:11:41.127Z,1015.21
2018-05-18T02:12:07.292Z,1015.21
2018-05-18T02:12:33.430Z,1015.23
2018-05-18T02:12:59.562Z,1015.16
2018-05-18T02:13:25.703Z,1015.23
2018-05-18T02:13:51.838Z,1015.19
2018-05-18T02:14:18.008Z,1015.21
2018-05-18T02:14:44.166Z,1015.22
2018-05-18T02:15:10.300Z,1015.24
2018-05-18T02:15:36.447Z,1015.17
2018-05-18T02:16:02.577Z,1015.18
2018-05-18T02:16:28.752Z,1015.19
2018-05-18T02:16:54.886Z,1015.21
2018-05-18T02:17:21.027Z,1015.22
2018-05-18T02:17:47.160Z,1015.2
2018-05-18T02:18:13.325Z,1015.23
2018-05-18T02:18:39.463Z,1015.28
2018-05-18T02:19:05.624Z,1015.26
2018-05-18T02:19:31.779Z,1015.24
2018-05-18T02:19:57.923Z,1015.28
2018-05-18T02:20:24.063Z,1015.28
2018-05-18T02:20:50.198Z,1015.31
2018-05-18T02:21:16.360Z,1015.21
2018-05-18T02:21:42.519Z,1015.25
2018-05-18T02:22:08.656Z,1015.26
2018-05-18T02:22:34.791Z,1015.28
2018-05-18T02:23:00.928Z,1015.23
2018-05-18T02:23:27.089Z,1015.24
2018-05-18T02:23:53.249Z,1015.26
2018-05-18T02:24:19.390Z,1015.28
2018-05-18T02:24:45.532Z,1015.27
2018-05-18T02:25:11.685Z,1015.21
2018-05-18T02:25:37.849Z,1015.26
2018-05-18T02:26:03.992Z,1015.26
2018-05-18T02:26:30.148Z,1015.24
2018-05-18T02:26:56.291Z,1015.26
2018-05-18T02:27:22.447Z,1015.27
2018-05-18T02:27:48.588Z,1015.26
2018-05-18T02:28:14.722Z,1015.23
2018-05-18T02:28:40.866Z,1015.24
2018-05-18T02:29:07.005Z,1015.21
2018-05-18T02:29:33.139Z,1015.26
2018-05-18T02:29:59.278Z,1015.29
2018-05-18T02:30:25.412Z,1015.27
2018-05-18T02:30:51.556Z,1015.26
2018-05-18T02:31:17.708Z,1015.28
2018-05-18T02:31:43.855Z,1015.3
2018-05-18T02:32:09.987Z,1015.27
2018-05-18T02:32:36.154Z,1015.27
2018-05-18T02:33:02.312Z,1015.27
2018-05-18T02:33:28.482Z,1015.26
2018-05-18T02:33:54.664Z,1015.23
2018-05-18T02:34:20.807Z,1015.25
2018-05-18T02:34:46.991Z,1015.28
2018-05-18T02:35:13.163Z,1015.23
2018-05-18T02:35:39.287Z,1015.23
2018-05-18T02:36:05.451Z,1015.21
2018-05-18T02:36:31.610Z,1015.25
2018-05-18T02:36:57.772Z,1015.24
2018-05-18T02:37:23.905Z,1015.23
2018-05-18T02:37:50.071Z,1015.22
2018-05-18T02:38:16.285Z,1015.21
2018-05-18T02:38:42.449Z,1015.19
2018-05-18T02:39:08.659Z,1015.21
2018-05-18T02:39:34.778Z,1015.21
2018-05-18T02:40:00.952Z,1015.19
2018-05-18T02:40:27.108Z,1015.2
2018-05-18T02:40:53.306Z,1015.19
2018-05-18T02:41:19.450Z,1015.17
2018-05-18T02:41:45.596Z,1015.13
2018-05-18T02:42:11.744Z,1015.13
2018-05-18T02:42:37.916Z,1015.14
2018-05-18T02:43:04.120Z,1015.11
2018-05-18T02:43:30.257Z,1015.13
2018-05-18T02:43:56.430Z,1015.15
2018-05-18T02:44:22.585Z,1015.16
2018-05-18T02:44:48.803Z,1015.14
2018-05-18T02:45:14.936Z,1015.13
2018-05-18T02:45:41.095Z,1015.13
2018-05-18T02:46:07.285Z,1015.15
2018-05-18T02:46:33.497Z,1015.16
2018-05-18T02:46:59.674Z,1015.12
2018-05-18T02:47:25.831Z,1015.11
2018-05-18T02:47:51.993Z,1015.12
2018-05-18T02:48:18.228Z,1015.12
2018-05-18T02:48:44.361Z,1015.11
2018-05-18T02:49:10.527Z,1015.13
2018-05-18T02:49:36.666Z,1015.07
2018-05-18T02:50:02.822Z,1015.12
2018-05-18T02:50:28.989Z,1015.1
2018-05-18T02:50:55.129Z,1015.08
2018-05-18T02:51:21.286Z,1015.11
2018-05-18T02:51:47.449Z,1015.1
2018-05-18T02:52:13.605Z,1015.07
2018-05-18T02:52:39.737Z,1015.09
2018-05-18T02:53:05.910Z,1015.13
2018-05-18T02:53:32.048Z,1015.07
2018-05-18T02:53:58.185Z,1015.11
2018-05-18T02:54:24.345Z,1015.14
2018-05-18T02:54:50.508Z,1015.15
2018-05-18T02:55:16.693Z,1015.11
2018-05-18T02:55:42.823Z,1015.12
2018-05-18T02:56:08.964Z,1015.14
2018-05-18T02:56:35.100Z,1015.13
2018-05-18T02:57:01.226Z,1015.14
2018-05-18T02:57:27.394Z,1015.14
2018-05-18T02:57:53.556Z,1015.06
2018-05-18T02:58:19.736Z,1015.14
2018-05-18T02:58:45.937Z,1015.16
2018-05-18T02:59:12.094Z,1015.17
2018-05-18T02:59:38.269Z,1015.2
2018-05-18T03:00:04.412Z,1015.17
2018-05-18T03:00:30.573Z,1015.14
2018-05-18T03:00:56.728Z,1015.13
2018-05-18T03:01:22.897Z,1015.19
2018-05-18T03:01:49.031Z,1015.13
2018-05-18T03:02:15.195Z,1015.18
2018-05-18T03:02:41.588Z,1015.19
2018-05-18T03:03:07.891Z,1015.14
2018-05-18T03:03:34.180Z,1015.11
2018-05-18T03:04:00.501Z,1015.12
2018-05-18T03:04:26.825Z,1015.15
2018-05-18T03:04:53.135Z,1015.1
2018-05-18T03:05:19.336Z,1015.1
2018-05-18T03:05:45.813Z,1015.17
2018-05-18T03:06:12.090Z,1015.16
2018-05-18T03:06:38.376Z,1015.16
2018-05-18T03:07:04.617Z,1015.16
2018-05-18T03:07:30.827Z,1015.19
2018-05-18T03:07:57.134Z,1015.15
2018-05-18T03:08:23.651Z,1015.2
2018-05-18T03:08:49.968Z,1015.21
2018-05-18T03:09:16.256Z,1015.24
2018-05-18T03:09:42.394Z,1015.22
2018-05-18T03:10:08.533Z,1015.2
2018-05-18T03:10:34.675Z,1015.21
2018-05-18T03:11:00.819Z,1015.21
2018-05-18T03:11:26.982Z,1015.23
2018-05-18T03:11:53.116Z,1015.17
2018-05-18T03:12:19.265Z,1015.24
2018-05-18T03:12:45.431Z,1015.23
2018-05-18T03:13:11.617Z,1015.21
2018-05-18T03:13:37.764Z,1015.2
2018-05-18T03:14:03.940Z,1015.2
2018-05-18T03:14:30.157Z,1015.2
2018-05-18T03:14:56.292Z,1015.2
2018-05-18T03:15:22.457Z,1015.2
2018-05-18T03:15:48.599Z,1015.22
2018-05-18T03:16:14.732Z,1015.22
2018-05-18T03:16:40.875Z,1015.17
2018-05-18T03:17:07.014Z,1015.19
2018-05-18T03:17:33.202Z,1015.22
2018-05-18T03:17:59.341Z,1015.22
2018-05-18T03:18:25.510Z,1015.21
2018-05-18T03:18:51.680Z,1015.23
2018-05-18T03:19:17.810Z,1015.22
2018-05-18T03:19:43.944Z,1015.28
2018-05-18T03:20:10.087Z,1015.26
2018-05-18T03:20:36.226Z,1015.25
2018-05-18T03:21:02.476Z,1015.2
2018-05-18T03:21:28.517Z,1015.26
2018-05-18T03:21:54.661Z,1015.27
2018-05-18T03:22:20.829Z,1015.28
2018-05-18T03:22:46.975Z,1015.29
2018-05-18T03:23:13.119Z,1015.29
2018-05-18T03:23:39.269Z,1015.25
2018-05-18T03:24:05.404Z,1015.27
2018-05-18T03:24:31.536Z,1015.25
2018-05-18T03:24:57.682Z,1015.23
2018-05-18T03:25:23.840Z,1015.25
2018-05-18T03:25:49.983Z,1015.23
2018-05-18T03:26:16.122Z,1015.21
2018-05-18T03:26:42.282Z,1015.22
2018-05-18T03:27:08.424Z,1015.2
2018-05-18T03:27:34.560Z,1015.21
2018-05-18T03:28:00.696Z,1015.19
2018-05-18T03:28:26.851Z,1015.18
2018-05-18T03:28:53.001Z,1015.2
2018-05-18T03:29:19.146Z,1015.2
2018-05-18T03:29:45.300Z,1015.15
2018-05-18T03:30:11.470Z,1015.21
2018-05-18T03:30:37.630Z,1015.19
2018-05-18T03:31:03.805Z,1015.23
2018-05-18T03:31:29.992Z,1015.23
2018-05-18T03:31:56.132Z,1015.2
2018-05-18T03:32:22.267Z,1015.25
2018-05-18T03:32:48.400Z,1015.22
2018-05-18T03:33:14.545Z,1015.24
2018-05-18T03:33:40.680Z,1015.21
2018-05-18T03:34:06.847Z,1015.21
2018-05-18T03:34:33.011Z,1015.23
2018-05-18T03:34:59.154Z,1015.22
2018-05-18T03:35:25.312Z,1015.21
2018-05-18T03:35:51.478Z,1015.24
2018-05-18T03:36:17.656Z,1015.25
2018-05-18T03:36:43.804Z,1015.2
2018-05-18T03:37:09.961Z,1015.21
2018-05-18T03:37:36.094Z,1015.26
2018-05-18T03:38:02.240Z,1015.24
2018-05-18T03:38:28.373Z,1015.25
2018-05-18T03:38:54.512Z,1015.3
2018-05-18T03:39:20.649Z,1015.25
2018-05-18T03:39:46.780Z,1015.26
2018-05-18T03:40:12.923Z,1015.27
2018-05-18T03:40:39.065Z,1015.3
2018-05-18T03:41:05.198Z,1015.27
2018-05-18T03:41:31.339Z,1015.31
2018-05-18T03:41:57.477Z,1015.27
2018-05-18T03:42:23.615Z,1015.3
2018-05-18T03:42:49.752Z,1015.25
2018-05-18T03:43:15.894Z,1015.25
2018-05-18T03:43:42.050Z,1015.29
2018-05-18T03:44:08.191Z,1015.23
2018-05-18T03:44:34.330Z,1015.22
2018-05-18T03:45:00.462Z,1015.26
2018-05-18T03:45:26.607Z,1015.25
2018-05-18T03:45:52.746Z,1015.26
2018-05-18T03:46:18.982Z,1015.26
2018-05-18T03:46:45.052Z,1015.3
2018-05-18T03:47:11.180Z,1015.27
2018-05-18T03:47:37.326Z,1015.22
2018-05-18T03:48:03.524Z,1015.28
2018-05-18T03:48:29.638Z,1015.29
2018-05-18T03:48:55.776Z,1015.25
2018-05-18T03:49:21.910Z,1015.25
2018-05-18T03:49:48.047Z,1015.27
2018-05-18T03:50:14.186Z,1015.26
2018-05-18T03:50:40.349Z,1015.29
2018-05-18T03:51:06.510Z,1015.27
2018-05-18T03:51:32.645Z,1015.26
2018-05-18T03:51:58.789Z,1015.25
2018-05-18T03:52:24.926Z,1015.29
2018-05-18T03:52:51.055Z,1015.26
2018-05-18T03:53:17.197Z,1015.3
2018-05-18T03:53:43.391Z,1015.29
2018-05-18T03:54:09.524Z,1015.28
2018-05-18T03:54:35.661Z,1015.26
2018-05-18T03:55:01.800Z,1015.33
2018-05-18T03:55:27.936Z,1015.33
2018-05-18T03:55:54.075Z,1015.34
2018-05-18T03:56:20.219Z,1015.33
2018-05-18T03:56:46.360Z,1015.35
2018-05-18T03:57:12.489Z,1015.35
2018-05-18T03:57:38.635Z,1015.38
2018-05-18T03:58:04.771Z,1015.38
2018-05-18T03:58:30.913Z,1015.39
2018-05-18T03:58:57.054Z,1015.36
2018-05-18T03:59:23.184Z,1015.34
2018-05-18T03:59:49.327Z,1015.37
2018-05-18T04:00:15.460Z,1015.34
2018-05-18T04:00:41.599Z,1015.36
2018-05-18T04:01:07.750Z,1015.33
2018-05-18T04:01:33.944Z,1015.39
2018-05-18T04:02:00.082Z,1015.37
2018-05-18T04:02:26.217Z,1015.37
2018-05-18T04:02:52.382Z,1015.4
2018-05-18T04:03:18.517Z,1015.4
2018-05-18T04:03:44.726Z,1015.41
2018-05-18T04:04:10.818Z,1015.39
2018-05-18T04:04:36.956Z,1015.41
2018-05-18T04:05:03.089Z,1015.43
2018-05-18T04:05:29.255Z,1015.44
2018-05-18T04:05:55.392Z,1015.43
2018-05-18T04:06:21.529Z,1015.39
2018-05-18T04:06:47.673Z,1015.4
2018-05-18T04:07:13.834Z,1015.38
2018-05-18T04:07:39.989Z,1015.39
2018-05-18T04:08:06.134Z,1015.43
2018-05-18T04:08:32.293Z,1015.4
2018-05-18T04:08:58.439Z,1015.41
2018-05-18T04:09:24.579Z,1015.41
2018-05-18T04:09:50.717Z,1015.41
2018-05-18T04:10:16.906Z,1015.4
2018-05-18T04:10:43.064Z,1015.4
2018-05-18T04:11:09.203Z,1015.44
2018-05-18T04:11:35.338Z,1015.42
2018-05-18T04:12:01.522Z,1015.4
2018-05-18T04:12:27.662Z,1015.46
2018-05-18T04:12:53.805Z,1015.39
2018-05-18T04:13:19.939Z,1015.44
2018-05-18T04:13:46.116Z,1015.44
2018-05-18T04:14:12.313Z,1015.41
2018-05-18T04:14:38.450Z,1015.43
2018-05-18T04:15:04.585Z,1015.44
2018-05-18T04:15:30.777Z,1015.43
2018-05-18T04:15:56.933Z,1015.46
2018-05-18T04:16:23.074Z,1015.44
2018-05-18T04:16:49.213Z,1015.46
2018-05-18T04:17:15.377Z,1015.44
2018-05-18T04:17:41.542Z,1015.45
2018-05-18T04:18:07.683Z,1015.47
2018-05-18T04:18:33.814Z,1015.51
2018-05-18T04:18:59.979Z,1015.46
2018-05-18T04:19:26.121Z,1015.5
2018-05-18T04:19:52.385Z,1015.51
2018-05-18T04:20:18.449Z,1015.51
2018-05-18T04:20:44.596Z,1015.51
2018-05-18T04:21:10.733Z,1015.52
2018-05-18T04:21:36.872Z,1015.53
2018-05-18T04:22:03.011Z,1015.54
2018-05-18T04:22:29.143Z,1015.54
2018-05-18T04:22:55.282Z,1015.53
2018-05-18T04:23:21.451Z,1015.56
2018-05-18T04:23:47.585Z,1015.5
2018-05-18T04:24:13.729Z,1015.54
2018-05-18T04:24:39.872Z,1015.57
2018-05-18T04:25:06.001Z,1015.54
2018-05-18T04:25:32.166Z,1015.52
2018-05-18T04:25:58.296Z,1015.53
2018-05-18T04:26:24.440Z,1015.55
2018-05-18T04:26:50.575Z,1015.53
2018-05-18T04:27:16.715Z,1015.53
2018-05-18T04:27:42.852Z,1015.55
2018-05-18T04:28:08.991Z,1015.54
2018-05-18T04:28:35.121Z,1015.55
2018-05-18T04:29:01.288Z,1015.55
2018-05-18T04:29:27.448Z,1015.53
2018-05-18T04:29:53.582Z,1015.52
2018-05-18T04:30:19.726Z,1015.54
2018-05-18T04:30:45.868Z,1015.54
2018-05-18T04:31:12.010Z,1015.54
2018-05-18T04:31:38.147Z,1015.5
2018-05-18T04:32:04.301Z,1015.53
2018-05-18T04:32:30.470Z,1015.53
2018-05-18T04:32:56.603Z,1015.52
2018-05-18T04:33:22.748Z,1015.54
2018-05-18T04:33:48.900Z,1015.63
2018-05-18T04:34:15.096Z,1015.58
2018-05-18T04:34:41.246Z,1015.59
2018-05-18T04:35:07.377Z,1015.61
2018-05-18T04:35:33.521Z,1015.58
2018-05-18T04:35:59.659Z,1015.59
2018-05-18T04:36:25.791Z,1015.6
2018-05-18T04:36:51.958Z,1015.63
2018-05-18T04:37:18.095Z,1015.62
2018-05-18T04:37:44.259Z,1015.62
2018-05-18T04:38:10.402Z,1015.63
2018-05-18T04:38:36.566Z,1015.61
2018-05-18T04:39:02.701Z,1015.6
2018-05-18T04:39:28.843Z,1015.61
2018-05-18T04:39:54.976Z,1015.58
2018-05-18T04:40:21.114Z,1015.6
2018-05-18T04:40:47.280Z,1015.62
2018-05-18T04:41:13.413Z,1015.62
2018-05-18T04:41:39.558Z,1015.62
2018-05-18T04:42:05.721Z,1015.63
2018-05-18T04:42:31.859Z,1015.62
2018-05-18T04:42:58.029Z,1015.63
2018-05-18T04:43:24.213Z,1015.63
2018-05-18T04:43:50.347Z,1015.63
2018-05-18T04:44:16.491Z,1015.6
2018-05-18T04:44:42.633Z,1015.61
2018-05-18T04:45:08.774Z,1015.62
2018-05-18T04:45:34.907Z,1015.61
2018-05-18T04:46:01.044Z,1015.6
2018-05-18T04:46:27.184Z,1015.65
2018-05-18T04:46:53.319Z,1015.63
2018-05-18T04:47:19.485Z,1015.58
2018-05-18T04:47:45.617Z,1015.61
2018-05-18T04:48:11.760Z,1015.65
2018-05-18T04:48:37.921Z,1015.65
2018-05-18T04:49:04.079Z,1015.64
2018-05-18T04:49:30.211Z,1015.65
2018-05-18T04:49:56.363Z,1015.65
2018-05-18T04:50:22.489Z,1015.68
2018-05-18T04:50:48.640Z,1015.69
2018-05-18T04:51:14.822Z,1015.68
2018-05-18T04:51:40.966Z,1015.7
2018-05-18T04:52:07.105Z,1015.71
2018-05-18T04:52:33.244Z,1015.66
2018-05-18T04:52:59.380Z,1015.69
2018-05-18T04:53:25.521Z,1015.66
2018-05-18T04:53:51.659Z,1015.7
2018-05-18T04:54:17.797Z,1015.72
2018-05-18T04:54:43.953Z,1015.71
2018-05-18T04:55:10.096Z,1015.73
2018-05-18T04:55:36.262Z,1015.73
2018-05-18T04:56:02.392Z,1015.73
2018-05-18T04:56:28.538Z,1015.73
2018-05-18T04:56:54.670Z,1015.77
2018-05-18T04:57:20.818Z,1015.71
2018-05-18T04:57:46.959Z,1015.73
2018-05-18T04:58:13.101Z,1015.76
2018-05-18T04:58:39.229Z,1015.72
2018-05-18T04:59:05.369Z,1015.74
2018-05-18T04:59:31.506Z,1015.71
2018-05-18T04:59:57.646Z,1015.73
2018-05-18T05:00:23.784Z,1015.71
2018-05-18T05:00:49.926Z,1015.74
2018-05-18T05:01:16.087Z,1015.74
2018-05-18T05:01:42.225Z,1015.74
2018-05-18T05:02:08.365Z,1015.73
2018-05-18T05:02:34.519Z,1015.75
2018-05-18T05:03:00.675Z,1015.76
2018-05-18T05:03:26.810Z,1015.78
2018-05-18T05:03:52.944Z,1015.77
2018-05-18T05:04:19.080Z,1015.73
2018-05-18T05:04:45.254Z,1015.72
2018-05-18T05:05:11.411Z,1015.75
2018-05-18T05:05:37.585Z,1015.75
2018-05-18T05:06:03.717Z,1015.71
2018-05-18T05:06:29.858Z,1015.75
2018-05-18T05:06:56.031Z,1015.72
2018-05-18T05:07:22.188Z,1015.76
2018-05-18T05:07:48.322Z,1015.75
2018-05-18T05:08:14.490Z,1015.77
2018-05-18T05:08:40.630Z,1015.75
2018-05-18T05:09:06.769Z,1015.74
2018-05-18T05:09:32.907Z,1015.78
2018-05-18T05:09:59.071Z,1015.76
2018-05-18T05:10:25.232Z,1015.78
2018-05-18T05:10:51.375Z,1015.81
2018-05-18T05:11:17.516Z,1015.8
2018-05-18T05:11:43.648Z,1015.78
2018-05-18T05:12:09.781Z,1015.72
2018-05-18T05:12:35.977Z,1015.78
2018-05-18T05:13:02.077Z,1015.76
2018-05-18T05:13:28.248Z,1015.81
2018-05-18T05:13:54.379Z,1015.76
2018-05-18T05:14:20.563Z,1015.78
2018-05-18T05:14:46.664Z,1015.81
2018-05-18T05:15:12.819Z,1015.79
2018-05-18T05:15:38.961Z,1015.81
2018-05-18T05:16:05.099Z,1015.85
2018-05-18T05:16:31.241Z,1015.85
2018-05-18T05:16:57.383Z,1015.79
2018-05-18T05:17:23.520Z,1015.85